sensor_id;sensor_type;location;lat;lon;timestamp;P1;durP1;ratioP1;P2;durP2;ratioP2
8986;SDS011;4529;51.360;12.474;2023-05-07T00:02:03;8.70;;;5.80;;
8986;SDS011;4529;51.360;12.474;2023-05-07T00:07:06;7.73;;;6.13;;
8986;SDS011;4529;51.360;12.474;2023-05-07T00:12:10;8.53;;;6.17;;
8986;SDS011;4529;51.360;12.474;2023-05-07T00:17:14;9.63;;;7.20;;
8986;SDS011;4529;51.360;12.474;2023-05-07T00:22:18;7.67;;;6.87;;
8986;SDS011;4529;51.360;12.474;2023-05-07T00:27:23;9.93;;;7.37;;
8986;SDS011;4529;51.360;12.474;2023-05-07T00:32:27;8.43;;;7.27;;
8986;SDS011;4529;51.360;12.474;2023-05-07T00:37:31;7.90;;;7.07;;
8986;SDS011;4529;51.360;12.474;2023-05-07T00:42:35;9.13;;;7.43;;
8986;SDS011;4529;51.360;12.474;2023-05-07T00:47:39;8.67;;;7.23;;
8986;SDS011;4529;51.360;12.474;2023-05-07T00:52:43;8.83;;;7.10;;
8986;SDS011;4529;51.360;12.474;2023-05-07T00:57:47;8.67;;;7.20;;
8986;SDS011;4529;51.360;12.474;2023-05-07T01:02:51;8.27;;;7.27;;
8986;SDS011;4529;51.360;12.474;2023-05-07T01:07:56;9.43;;;7.90;;
8986;SDS011;4529;51.360;12.474;2023-05-07T01:13:00;9.23;;;7.70;;
8986;SDS011;4529;51.360;12.474;2023-05-07T01:18:04;10.53;;;8.47;;
8986;SDS011;4529;51.360;12.474;2023-05-07T01:23:08;9.83;;;8.07;;
8986;SDS011;4529;51.360;12.474;2023-05-07T01:28:12;10.87;;;8.93;;
8986;SDS011;4529;51.360;12.474;2023-05-07T01:33:16;11.27;;;9.40;;
8986;SDS011;4529;51.360;12.474;2023-05-07T01:38:20;11.13;;;9.70;;
8986;SDS011;4529;51.360;12.474;2023-05-07T01:43:22;11.57;;;10.00;;
8986;SDS011;4529;51.360;12.474;2023-05-07T01:48:26;11.13;;;9.73;;
8986;SDS011;4529;51.360;12.474;2023-05-07T01:53:35;11.33;;;9.97;;
8986;SDS011;4529;51.360;12.474;2023-05-07T01:58:33;11.03;;;9.77;;
8986;SDS011;4529;51.360;12.474;2023-05-07T02:03:36;10.93;;;9.70;;
8986;SDS011;4529;51.360;12.474;2023-05-07T02:08:40;10.63;;;9.53;;
8986;SDS011;4529;51.360;12.474;2023-05-07T02:13:43;11.90;;;9.67;;
8986;SDS011;4529;51.360;12.474;2023-05-07T02:18:47;13.47;;;9.27;;
8986;SDS011;4529;51.360;12.474;2023-05-07T02:23:50;11.43;;;8.70;;
8986;SDS011;4529;51.360;12.474;2023-05-07T02:28:54;10.27;;;8.50;;
8986;SDS011;4529;51.360;12.474;2023-05-07T02:33:57;11.30;;;9.00;;
8986;SDS011;4529;51.360;12.474;2023-05-07T02:39:01;12.13;;;9.20;;
8986;SDS011;4529;51.360;12.474;2023-05-07T02:44:04;10.13;;;8.57;;
8986;SDS011;4529;51.360;12.474;2023-05-07T02:49:08;11.43;;;9.50;;
8986;SDS011;4529;51.360;12.474;2023-05-07T02:54:11;9.90;;;8.83;;
8986;SDS011;4529;51.360;12.474;2023-05-07T02:59:14;12.27;;;9.00;;
8986;SDS011;4529;51.360;12.474;2023-05-07T03:04:18;11.83;;;8.63;;
8986;SDS011;4529;51.360;12.474;2023-05-07T03:09:22;10.27;;;8.90;;
8986;SDS011;4529;51.360;12.474;2023-05-07T03:14:26;11.93;;;8.93;;
8986;SDS011;4529;51.360;12.474;2023-05-07T03:19:30;11.47;;;9.17;;
8986;SDS011;4529;51.360;12.474;2023-05-07T03:24:34;11.80;;;8.90;;
8986;SDS011;4529;51.360;12.474;2023-05-07T03:29:39;11.53;;;9.00;;
8986;SDS011;4529;51.360;12.474;2023-05-07T03:34:42;10.93;;;8.80;;
8986;SDS011;4529;51.360;12.474;2023-05-07T03:39:46;10.47;;;8.37;;
8986;SDS011;4529;51.360;12.474;2023-05-07T03:44:49;11.23;;;9.27;;
8986;SDS011;4529;51.360;12.474;2023-05-07T03:49:53;11.57;;;8.67;;
8986;SDS011;4529;51.360;12.474;2023-05-07T03:54:56;12.47;;;9.17;;
8986;SDS011;4529;51.360;12.474;2023-05-07T03:59:59;11.63;;;9.27;;
8986;SDS011;4529;51.360;12.474;2023-05-07T04:05:03;13.17;;;9.40;;
8986;SDS011;4529;51.360;12.474;2023-05-07T04:10:07;12.20;;;9.43;;
8986;SDS011;4529;51.360;12.474;2023-05-07T04:15:11;12.03;;;8.90;;
8986;SDS011;4529;51.360;12.474;2023-05-07T04:20:15;13.17;;;9.40;;
8986;SDS011;4529;51.360;12.474;2023-05-07T04:25:19;12.67;;;9.30;;
8986;SDS011;4529;51.360;12.474;2023-05-07T04:30:22;12.50;;;9.43;;
8986;SDS011;4529;51.360;12.474;2023-05-07T04:35:26;12.43;;;9.10;;
8986;SDS011;4529;51.360;12.474;2023-05-07T04:40:29;10.87;;;8.40;;
8986;SDS011;4529;51.360;12.474;2023-05-07T04:45:33;10.80;;;8.97;;
8986;SDS011;4529;51.360;12.474;2023-05-07T04:50:36;9.87;;;7.30;;
8986;SDS011;4529;51.360;12.474;2023-05-07T04:55:40;9.40;;;7.47;;
8986;SDS011;4529;51.360;12.474;2023-05-07T05:00:43;8.43;;;7.20;;
8986;SDS011;4529;51.360;12.474;2023-05-07T05:05:48;8.53;;;7.13;;
8986;SDS011;4529;51.360;12.474;2023-05-07T05:10:50;7.93;;;7.00;;
8986;SDS011;4529;51.360;12.474;2023-05-07T05:15:53;7.87;;;6.27;;
8986;SDS011;4529;51.360;12.474;2023-05-07T05:20:57;8.67;;;6.47;;
8986;SDS011;4529;51.360;12.474;2023-05-07T05:26:00;9.80;;;6.33;;
8986;SDS011;4529;51.360;12.474;2023-05-07T05:31:04;7.93;;;6.27;;
8986;SDS011;4529;51.360;12.474;2023-05-07T05:36:11;8.83;;;5.17;;
8986;SDS011;4529;51.360;12.474;2023-05-07T05:41:14;6.30;;;4.83;;
8986;SDS011;4529;51.360;12.474;2023-05-07T05:46:18;7.27;;;5.30;;
8986;SDS011;4529;51.360;12.474;2023-05-07T05:51:21;9.27;;;6.07;;
8986;SDS011;4529;51.360;12.474;2023-05-07T05:56:25;7.33;;;5.63;;
8986;SDS011;4529;51.360;12.474;2023-05-07T06:01:28;8.17;;;7.33;;
8986;SDS011;4529;51.360;12.474;2023-05-07T06:06:32;9.83;;;8.07;;
8986;SDS011;4529;51.360;12.474;2023-05-07T06:11:35;10.00;;;8.00;;
8986;SDS011;4529;51.360;12.474;2023-05-07T06:16:39;10.70;;;7.90;;
8986;SDS011;4529;51.360;12.474;2023-05-07T06:21:42;9.67;;;7.63;;
8986;SDS011;4529;51.360;12.474;2023-05-07T06:26:46;8.73;;;7.67;;
8986;SDS011;4529;51.360;12.474;2023-05-07T06:31:49;9.47;;;7.63;;
8986;SDS011;4529;51.360;12.474;2023-05-07T06:36:52;8.47;;;7.17;;
8986;SDS011;4529;51.360;12.474;2023-05-07T06:41:56;9.07;;;7.13;;
8986;SDS011;4529;51.360;12.474;2023-05-07T06:46:59;9.77;;;7.97;;
8986;SDS011;4529;51.360;12.474;2023-05-07T06:52:03;10.37;;;7.60;;
8986;SDS011;4529;51.360;12.474;2023-05-07T06:57:06;8.03;;;6.97;;
8986;SDS011;4529;51.360;12.474;2023-05-07T07:02:10;8.97;;;6.57;;
8986;SDS011;4529;51.360;12.474;2023-05-07T07:07:13;6.90;;;6.20;;
8986;SDS011;4529;51.360;12.474;2023-05-07T07:12:17;7.53;;;6.17;;
8986;SDS011;4529;51.360;12.474;2023-05-07T07:17:20;7.03;;;6.33;;
8986;SDS011;4529;51.360;12.474;2023-05-07T07:22:24;8.87;;;7.03;;
8986;SDS011;4529;51.360;12.474;2023-05-07T07:27:27;7.23;;;6.50;;
8986;SDS011;4529;51.360;12.474;2023-05-07T07:32:31;6.37;;;5.77;;
8986;SDS011;4529;51.360;12.474;2023-05-07T07:37:34;5.93;;;5.33;;
8986;SDS011;4529;51.360;12.474;2023-05-07T07:42:38;6.00;;;5.40;;
8986;SDS011;4529;51.360;12.474;2023-05-07T07:47:41;5.97;;;5.30;;
8986;SDS011;4529;51.360;12.474;2023-05-07T07:52:45;5.30;;;4.90;;
8986;SDS011;4529;51.360;12.474;2023-05-07T07:57:49;6.07;;;4.87;;
8986;SDS011;4529;51.360;12.474;2023-05-07T08:02:51;5.07;;;4.60;;
8986;SDS011;4529;51.360;12.474;2023-05-07T08:07:55;5.00;;;4.47;;
8986;SDS011;4529;51.360;12.474;2023-05-07T08:12:58;4.10;;;3.80;;
8986;SDS011;4529;51.360;12.474;2023-05-07T08:18:02;4.37;;;3.97;;
8986;SDS011;4529;51.360;12.474;2023-05-07T08:23:05;5.00;;;4.50;;
8986;SDS011;4529;51.360;12.474;2023-05-07T08:28:09;4.93;;;4.53;;
8986;SDS011;4529;51.360;12.474;2023-05-07T08:33:12;5.40;;;4.30;;
8986;SDS011;4529;51.360;12.474;2023-05-07T08:38:16;4.70;;;4.30;;
8986;SDS011;4529;51.360;12.474;2023-05-07T08:43:19;4.97;;;4.57;;
8986;SDS011;4529;51.360;12.474;2023-05-07T08:48:24;5.20;;;4.77;;
8986;SDS011;4529;51.360;12.474;2023-05-07T08:53:26;4.70;;;4.30;;
8986;SDS011;4529;51.360;12.474;2023-05-07T08:58:30;5.40;;;4.90;;
8986;SDS011;4529;51.360;12.474;2023-05-07T09:03:33;5.37;;;4.87;;
8986;SDS011;4529;51.360;12.474;2023-05-07T09:08:36;5.17;;;4.63;;
8986;SDS011;4529;51.360;12.474;2023-05-07T09:13:40;6.83;;;5.33;;
8986;SDS011;4529;51.360;12.474;2023-05-07T09:18:43;5.27;;;4.87;;
8986;SDS011;4529;51.360;12.474;2023-05-07T09:23:51;5.77;;;5.27;;
8986;SDS011;4529;51.360;12.474;2023-05-07T09:28:51;5.73;;;5.23;;
8986;SDS011;4529;51.360;12.474;2023-05-07T09:33:55;5.47;;;4.97;;
8986;SDS011;4529;51.360;12.474;2023-05-07T09:39:01;5.67;;;5.13;;
8986;SDS011;4529;51.360;12.474;2023-05-07T09:44:04;5.17;;;4.67;;
8986;SDS011;4529;51.360;12.474;2023-05-07T09:49:10;5.00;;;4.50;;
8986;SDS011;4529;51.360;12.474;2023-05-07T09:54:15;5.40;;;4.90;;
8986;SDS011;4529;51.360;12.474;2023-05-07T09:59:18;4.93;;;4.53;;
8986;SDS011;4529;51.360;12.474;2023-05-07T10:04:23;4.80;;;4.40;;
8986;SDS011;4529;51.360;12.474;2023-05-07T10:09:27;4.60;;;4.20;;
8986;SDS011;4529;51.360;12.474;2023-05-07T10:14:31;5.27;;;4.77;;
8986;SDS011;4529;51.360;12.474;2023-05-07T10:19:35;5.00;;;4.50;;
8986;SDS011;4529;51.360;12.474;2023-05-07T10:24:39;5.30;;;4.80;;
8986;SDS011;4529;51.360;12.474;2023-05-07T10:34:56;5.63;;;5.13;;
8986;SDS011;4529;51.360;12.474;2023-05-07T10:39:58;6.10;;;5.60;;
8986;SDS011;4529;51.360;12.474;2023-05-07T10:45:14;6.50;;;5.90;;
8986;SDS011;4529;51.360;12.474;2023-05-07T10:50:20;6.97;;;6.37;;
8986;SDS011;4529;51.360;12.474;2023-05-07T10:55:24;6.93;;;6.23;;
8986;SDS011;4529;51.360;12.474;2023-05-07T11:05:31;6.50;;;5.90;;
8986;SDS011;4529;51.360;12.474;2023-05-07T11:10:50;6.57;;;5.70;;
8986;SDS011;4529;51.360;12.474;2023-05-07T11:15:53;6.30;;;5.70;;
8986;SDS011;4529;51.360;12.474;2023-05-07T11:20:58;5.90;;;5.40;;
8986;SDS011;4529;51.360;12.474;2023-05-07T11:26:02;7.13;;;5.50;;
8986;SDS011;4529;51.360;12.474;2023-05-07T11:31:06;6.50;;;5.90;;
8986;SDS011;4529;51.360;12.474;2023-05-07T11:36:10;5.93;;;5.30;;
8986;SDS011;4529;51.360;12.474;2023-05-07T11:41:15;5.50;;;5.00;;
8986;SDS011;4529;51.360;12.474;2023-05-07T11:46:18;5.57;;;5.00;;
8986;SDS011;4529;51.360;12.474;2023-05-07T11:51:23;6.00;;;5.50;;
8986;SDS011;4529;51.360;12.474;2023-05-07T11:56:26;5.97;;;5.40;;
8986;SDS011;4529;51.360;12.474;2023-05-07T12:01:30;6.23;;;5.63;;
8986;SDS011;4529;51.360;12.474;2023-05-07T12:06:35;6.97;;;5.27;;
8986;SDS011;4529;51.360;12.474;2023-05-07T12:11:37;5.87;;;5.30;;
8986;SDS011;4529;51.360;12.474;2023-05-07T12:16:40;5.90;;;5.07;;
8986;SDS011;4529;51.360;12.474;2023-05-07T12:21:44;6.03;;;5.43;;
8986;SDS011;4529;51.360;12.474;2023-05-07T12:26:47;5.37;;;4.97;;
8986;SDS011;4529;51.360;12.474;2023-05-07T12:31:51;5.50;;;5.00;;
8986;SDS011;4529;51.360;12.474;2023-05-07T12:36:54;5.20;;;4.77;;
8986;SDS011;4529;51.360;12.474;2023-05-07T12:41:58;6.03;;;4.83;;
8986;SDS011;4529;51.360;12.474;2023-05-07T12:47:01;4.77;;;4.37;;
8986;SDS011;4529;51.360;12.474;2023-05-07T12:52:05;4.87;;;4.47;;
8986;SDS011;4529;51.360;12.474;2023-05-07T12:57:09;4.90;;;4.50;;
8986;SDS011;4529;51.360;12.474;2023-05-07T13:02:12;5.00;;;4.60;;
8986;SDS011;4529;51.360;12.474;2023-05-07T13:07:16;4.90;;;4.50;;
8986;SDS011;4529;51.360;12.474;2023-05-07T13:12:19;5.10;;;4.60;;
8986;SDS011;4529;51.360;12.474;2023-05-07T13:17:22;4.77;;;3.80;;
8986;SDS011;4529;51.360;12.474;2023-05-07T13:22:26;3.93;;;3.63;;
8986;SDS011;4529;51.360;12.474;2023-05-07T13:27:29;4.50;;;4.10;;
8986;SDS011;4529;51.360;12.474;2023-05-07T13:32:33;4.60;;;4.07;;
8986;SDS011;4529;51.360;12.474;2023-05-07T13:37:36;4.57;;;4.13;;
8986;SDS011;4529;51.360;12.474;2023-05-07T13:42:40;4.00;;;3.70;;
8986;SDS011;4529;51.360;12.474;2023-05-07T13:47:43;5.27;;;3.80;;
8986;SDS011;4529;51.360;12.474;2023-05-07T13:52:47;4.03;;;3.73;;
8986;SDS011;4529;51.360;12.474;2023-05-07T13:57:57;3.63;;;3.33;;
8986;SDS011;4529;51.360;12.474;2023-05-07T14:03:00;3.60;;;3.30;;
8986;SDS011;4529;51.360;12.474;2023-05-07T14:08:03;3.33;;;3.13;;
8986;SDS011;4529;51.360;12.474;2023-05-07T14:13:07;3.30;;;3.10;;
8986;SDS011;4529;51.360;12.474;2023-05-07T14:18:10;3.10;;;2.90;;
8986;SDS011;4529;51.360;12.474;2023-05-07T14:23:14;3.40;;;3.10;;
8986;SDS011;4529;51.360;12.474;2023-05-07T14:28:17;3.40;;;3.10;;
8986;SDS011;4529;51.360;12.474;2023-05-07T14:33:21;3.00;;;2.80;;
8986;SDS011;4529;51.360;12.474;2023-05-07T14:38:24;3.40;;;3.10;;
8986;SDS011;4529;51.360;12.474;2023-05-07T14:43:28;3.20;;;3.00;;
8986;SDS011;4529;51.360;12.474;2023-05-07T14:48:31;3.00;;;2.80;;
8986;SDS011;4529;51.360;12.474;2023-05-07T14:53:35;2.93;;;2.73;;
8986;SDS011;4529;51.360;12.474;2023-05-07T14:58:38;4.53;;;2.87;;
8986;SDS011;4529;51.360;12.474;2023-05-07T15:03:41;3.00;;;2.80;;
8986;SDS011;4529;51.360;12.474;2023-05-07T15:08:45;3.13;;;2.87;;
8986;SDS011;4529;51.360;12.474;2023-05-07T15:13:49;3.30;;;3.03;;
8986;SDS011;4529;51.360;12.474;2023-05-07T15:18:53;3.30;;;3.10;;
8986;SDS011;4529;51.360;12.474;2023-05-07T15:23:56;3.13;;;2.87;;
8986;SDS011;4529;51.360;12.474;2023-05-07T15:28:59;3.20;;;3.00;;
8986;SDS011;4529;51.360;12.474;2023-05-07T15:34:03;3.80;;;2.90;;
8986;SDS011;4529;51.360;12.474;2023-05-07T15:39:07;4.83;;;3.30;;
8986;SDS011;4529;51.360;12.474;2023-05-07T15:44:11;3.70;;;3.40;;
8986;SDS011;4529;51.360;12.474;2023-05-07T15:49:14;3.70;;;3.40;;
8986;SDS011;4529;51.360;12.474;2023-05-07T15:54:18;3.87;;;3.57;;
8986;SDS011;4529;51.360;12.474;2023-05-07T15:59:22;3.97;;;3.67;;
8986;SDS011;4529;51.360;12.474;2023-05-07T16:04:25;3.50;;;3.27;;
8986;SDS011;4529;51.360;12.474;2023-05-07T16:09:29;4.10;;;3.77;;
8986;SDS011;4529;51.360;12.474;2023-05-07T16:14:32;4.50;;;4.10;;
8986;SDS011;4529;51.360;12.474;2023-05-07T16:19:36;5.60;;;4.30;;
8986;SDS011;4529;51.360;12.474;2023-05-07T16:24:40;4.40;;;4.00;;
8986;SDS011;4529;51.360;12.474;2023-05-07T16:29:45;4.67;;;4.00;;
8986;SDS011;4529;51.360;12.474;2023-05-07T16:34:48;4.13;;;3.73;;
8986;SDS011;4529;51.360;12.474;2023-05-07T16:39:52;4.33;;;3.93;;
8986;SDS011;4529;51.360;12.474;2023-05-07T16:44:55;3.90;;;3.47;;
8986;SDS011;4529;51.360;12.474;2023-05-07T16:50:00;4.40;;;4.00;;
8986;SDS011;4529;51.360;12.474;2023-05-07T16:55:04;5.10;;;4.00;;
8986;SDS011;4529;51.360;12.474;2023-05-07T17:00:09;5.13;;;4.43;;
8986;SDS011;4529;51.360;12.474;2023-05-07T17:05:12;7.17;;;4.10;;
8986;SDS011;4529;51.360;12.474;2023-05-07T17:10:16;4.00;;;3.70;;
8986;SDS011;4529;51.360;12.474;2023-05-07T17:15:19;4.90;;;3.97;;
8986;SDS011;4529;51.360;12.474;2023-05-07T17:20:23;4.70;;;3.80;;
8986;SDS011;4529;51.360;12.474;2023-05-07T17:25:26;4.77;;;4.37;;
8986;SDS011;4529;51.360;12.474;2023-05-07T17:30:29;4.87;;;4.47;;
8986;SDS011;4529;51.360;12.474;2023-05-07T17:35:33;5.17;;;4.70;;
8986;SDS011;4529;51.360;12.474;2023-05-07T17:40:36;6.60;;;4.63;;
8986;SDS011;4529;51.360;12.474;2023-05-07T17:45:40;4.63;;;4.23;;
8986;SDS011;4529;51.360;12.474;2023-05-07T17:50:43;4.50;;;4.10;;
8986;SDS011;4529;51.360;12.474;2023-05-07T17:55:47;4.80;;;4.40;;
8986;SDS011;4529;51.360;12.474;2023-05-07T18:00:54;4.17;;;3.80;;
8986;SDS011;4529;51.360;12.474;2023-05-07T18:05:57;4.30;;;3.90;;
8986;SDS011;4529;51.360;12.474;2023-05-07T18:11:01;4.80;;;4.40;;
8986;SDS011;4529;51.360;12.474;2023-05-07T18:16:04;4.60;;;4.20;;
8986;SDS011;4529;51.360;12.474;2023-05-07T18:21:08;4.63;;;4.23;;
8986;SDS011;4529;51.360;12.474;2023-05-07T18:26:11;4.30;;;3.90;;
8986;SDS011;4529;51.360;12.474;2023-05-07T18:31:15;4.70;;;4.27;;
8986;SDS011;4529;51.360;12.474;2023-05-07T18:36:18;5.93;;;5.00;;
8986;SDS011;4529;51.360;12.474;2023-05-07T18:41:21;7.10;;;4.80;;
8986;SDS011;4529;51.360;12.474;2023-05-07T18:46:25;6.47;;;4.63;;
8986;SDS011;4529;51.360;12.474;2023-05-07T18:51:28;5.30;;;4.33;;
8986;SDS011;4529;51.360;12.474;2023-05-07T18:56:32;4.97;;;4.47;;
8986;SDS011;4529;51.360;12.474;2023-05-07T19:01:35;4.90;;;4.50;;
8986;SDS011;4529;51.360;12.474;2023-05-07T19:06:39;5.00;;;4.60;;
8986;SDS011;4529;51.360;12.474;2023-05-07T19:11:42;4.97;;;4.57;;
8986;SDS011;4529;51.360;12.474;2023-05-07T19:16:46;5.63;;;4.20;;
8986;SDS011;4529;51.360;12.474;2023-05-07T19:21:49;7.57;;;4.50;;
8986;SDS011;4529;51.360;12.474;2023-05-07T19:26:53;4.50;;;4.10;;
8986;SDS011;4529;51.360;12.474;2023-05-07T19:31:56;4.80;;;4.40;;
8986;SDS011;4529;51.360;12.474;2023-05-07T19:37:00;5.27;;;4.23;;
8986;SDS011;4529;51.360;12.474;2023-05-07T19:42:03;4.80;;;4.40;;
8986;SDS011;4529;51.360;12.474;2023-05-07T19:47:07;4.77;;;4.37;;
8986;SDS011;4529;51.360;12.474;2023-05-07T19:52:10;4.90;;;4.50;;
8986;SDS011;4529;51.360;12.474;2023-05-07T19:57:13;5.53;;;4.80;;
8986;SDS011;4529;51.360;12.474;2023-05-07T20:02:18;5.20;;;4.70;;
8986;SDS011;4529;51.360;12.474;2023-05-07T20:07:21;5.30;;;4.80;;
8986;SDS011;4529;51.360;12.474;2023-05-07T20:12:24;5.93;;;5.03;;
8986;SDS011;4529;51.360;12.474;2023-05-07T20:17:28;5.63;;;4.70;;
8986;SDS011;4529;51.360;12.474;2023-05-07T20:22:31;5.50;;;4.93;;
8986;SDS011;4529;51.360;12.474;2023-05-07T20:27:35;5.83;;;4.43;;
8986;SDS011;4529;51.360;12.474;2023-05-07T20:32:39;6.63;;;4.80;;
8986;SDS011;4529;51.360;12.474;2023-05-07T20:37:42;5.10;;;4.60;;
8986;SDS011;4529;51.360;12.474;2023-05-07T20:42:46;5.10;;;4.60;;
8986;SDS011;4529;51.360;12.474;2023-05-07T20:47:49;4.93;;;4.43;;
8986;SDS011;4529;51.360;12.474;2023-05-07T20:52:53;4.93;;;4.43;;
8986;SDS011;4529;51.360;12.474;2023-05-07T20:57:57;5.53;;;5.00;;
8986;SDS011;4529;51.360;12.474;2023-05-07T21:03:00;6.00;;;4.70;;
8986;SDS011;4529;51.360;12.474;2023-05-07T21:08:05;5.83;;;5.20;;
8986;SDS011;4529;51.360;12.474;2023-05-07T21:13:09;6.17;;;5.23;;
8986;SDS011;4529;51.360;12.474;2023-05-07T21:18:12;6.53;;;5.10;;
8986;SDS011;4529;51.360;12.474;2023-05-07T21:23:16;6.73;;;5.33;;
8986;SDS011;4529;51.360;12.474;2023-05-07T21:28:20;5.83;;;5.23;;
8986;SDS011;4529;51.360;12.474;2023-05-07T21:33:24;5.80;;;5.20;;
8986;SDS011;4529;51.360;12.474;2023-05-07T21:38:27;5.90;;;5.27;;
8986;SDS011;4529;51.360;12.474;2023-05-07T21:43:31;6.03;;;5.47;;
8986;SDS011;4529;51.360;12.474;2023-05-07T21:48:34;5.60;;;5.10;;
8986;SDS011;4529;51.360;12.474;2023-05-07T21:53:38;7.50;;;5.57;;
8986;SDS011;4529;51.360;12.474;2023-05-07T21:58:42;6.30;;;5.27;;
8986;SDS011;4529;51.360;12.474;2023-05-07T22:03:46;6.43;;;5.50;;
8986;SDS011;4529;51.360;12.474;2023-05-07T22:08:50;8.23;;;5.27;;
8986;SDS011;4529;51.360;12.474;2023-05-07T22:13:54;6.07;;;5.47;;
8986;SDS011;4529;51.360;12.474;2023-05-07T22:18:58;7.67;;;5.70;;
8986;SDS011;4529;51.360;12.474;2023-05-07T22:24:03;6.13;;;5.50;;
8986;SDS011;4529;51.360;12.474;2023-05-07T22:29:06;5.60;;;5.10;;
8986;SDS011;4529;51.360;12.474;2023-05-07T22:34:10;6.07;;;5.50;;
8986;SDS011;4529;51.360;12.474;2023-05-07T22:39:14;5.73;;;5.07;;
8986;SDS011;4529;51.360;12.474;2023-05-07T22:44:17;6.13;;;5.03;;
8986;SDS011;4529;51.360;12.474;2023-05-07T22:49:21;7.17;;;5.43;;
8986;SDS011;4529;51.360;12.474;2023-05-07T22:54:24;5.50;;;4.83;;
8986;SDS011;4529;51.360;12.474;2023-05-07T22:59:28;5.30;;;4.80;;
8986;SDS011;4529;51.360;12.474;2023-05-07T23:04:32;5.57;;;5.07;;
8986;SDS011;4529;51.360;12.474;2023-05-07T23:09:36;5.40;;;4.90;;
8986;SDS011;4529;51.360;12.474;2023-05-07T23:14:39;5.40;;;4.80;;
8986;SDS011;4529;51.360;12.474;2023-05-07T23:19:43;5.07;;;4.57;;
8986;SDS011;4529;51.360;12.474;2023-05-07T23:24:46;5.77;;;4.97;;
8986;SDS011;4529;51.360;12.474;2023-05-07T23:29:50;5.20;;;4.77;;
8986;SDS011;4529;51.360;12.474;2023-05-07T23:34:53;7.53;;;5.07;;
8986;SDS011;4529;51.360;12.474;2023-05-07T23:39:57;6.87;;;4.90;;
8986;SDS011;4529;51.360;12.474;2023-05-07T23:45:01;6.90;;;5.00;;
8986;SDS011;4529;51.360;12.474;2023-05-07T23:50:04;5.53;;;4.67;;
8986;SDS011;4529;51.360;12.474;2023-05-07T23:55:08;5.43;;;4.80;;
